createdAt,value
2023-05-14T00:02:14.940Z,5.70
2023-05-14T00:04:41.696Z,5.30
2023-05-14T00:07:08.439Z,4.95
2023-05-14T00:09:35.526Z,5.00
2023-05-14T00:12:02.272Z,5.78
2023-05-14T00:14:30.105Z,5.07
2023-05-14T00:16:56.688Z,5.38
2023-05-14T00:19:23.346Z,6.00
2023-05-14T00:21:49.952Z,5.40
2023-05-14T00:24:16.628Z,5.65
2023-05-14T00:26:43.385Z,5.80
2023-05-14T00:29:10.014Z,6.00
2023-05-14T00:31:36.680Z,5.97
2023-05-14T00:34:03.474Z,5.57
2023-05-14T00:36:31.458Z,5.05
2023-05-14T00:38:58.471Z,5.75
2023-05-14T00:41:25.140Z,6.45
2023-05-14T00:43:51.744Z,5.75
2023-05-14T00:46:18.806Z,5.80
2023-05-14T00:48:45.752Z,6.28
2023-05-14T00:51:12.512Z,6.40
2023-05-14T00:53:39.662Z,5.93
2023-05-14T00:56:08.306Z,6.32
2023-05-14T00:58:35.029Z,5.60
2023-05-14T01:01:01.752Z,6.22
2023-05-14T01:03:30.562Z,5.93
2023-05-14T01:06:12.471Z,5.93
2023-05-14T01:08:52.410Z,6.43
2023-05-14T01:11:30.873Z,7.93
2023-05-14T01:14:22.502Z,5.82
2023-05-14T01:16:53.039Z,6.60
2023-05-14T01:19:42.576Z,6.60
2023-05-14T01:22:11.278Z,6.18
2023-05-14T01:24:38.000Z,6.50
2023-05-14T01:27:14.441Z,6.60
2023-05-14T01:29:43.878Z,7.13
2023-05-14T01:32:10.947Z,6.32
2023-05-14T01:34:39.116Z,6.47
2023-05-14T01:37:06.629Z,7.18
2023-05-14T01:39:37.776Z,6.20
2023-05-14T01:42:05.762Z,7.13
2023-05-14T01:44:33.400Z,6.30
2023-05-14T01:46:59.997Z,6.55
2023-05-14T01:49:28.003Z,6.45
2023-05-14T01:51:54.601Z,6.75
2023-05-14T01:54:22.310Z,6.90
2023-05-14T01:56:48.921Z,6.63
2023-05-14T01:59:17.641Z,6.22
2023-05-14T02:01:44.343Z,6.28
2023-05-14T02:04:11.083Z,8.02
2023-05-14T02:06:37.748Z,7.63
2023-05-14T02:09:05.451Z,6.43
2023-05-14T02:11:33.320Z,6.65
2023-05-14T02:13:59.977Z,7.07
2023-05-14T02:16:26.659Z,6.60
2023-05-14T02:18:53.377Z,6.38
2023-05-14T02:21:20.058Z,6.40
2023-05-14T02:23:48.502Z,6.50
2023-05-14T02:26:16.408Z,7.07
2023-05-14T02:28:43.116Z,6.50
2023-05-14T02:31:09.826Z,6.45
2023-05-14T02:33:36.545Z,6.57
2023-05-14T02:36:03.298Z,6.78
2023-05-14T02:38:29.909Z,7.22
2023-05-14T02:40:57.116Z,6.65
2023-05-14T02:43:24.335Z,5.63
2023-05-14T02:45:50.939Z,6.95
2023-05-14T02:48:17.668Z,6.35
2023-05-14T02:50:44.253Z,8.80
2023-05-14T02:53:12.125Z,6.57
2023-05-14T02:55:38.833Z,6.40
2023-05-14T02:58:06.869Z,6.38
2023-05-14T03:00:34.747Z,6.18
2023-05-14T03:03:02.076Z,6.57
2023-05-14T03:05:29.130Z,6.82
2023-05-14T03:07:55.884Z,6.68
2023-05-14T03:10:22.775Z,6.68
2023-05-14T03:12:49.646Z,6.75
2023-05-14T03:15:16.237Z,7.38
2023-05-14T03:17:42.891Z,6.90
2023-05-14T03:20:10.829Z,6.97
2023-05-14T03:22:37.483Z,6.88
2023-05-14T03:25:05.679Z,7.28
2023-05-14T03:27:33.289Z,7.05
2023-05-14T03:30:01.300Z,6.18
2023-05-14T03:32:28.012Z,6.90
2023-05-14T03:34:56.034Z,7.20
2023-05-14T03:37:22.907Z,7.60
2023-05-14T03:39:49.932Z,7.60
2023-05-14T03:42:17.055Z,7.90
2023-05-14T03:44:43.807Z,8.10
2023-05-14T03:47:11.748Z,8.30
2023-05-14T03:49:38.387Z,7.07
2023-05-14T03:52:05.254Z,6.93
2023-05-14T03:54:31.882Z,7.28
2023-05-14T03:56:58.771Z,8.05
2023-05-14T03:59:25.695Z,7.07
2023-05-14T04:01:52.343Z,6.63
2023-05-14T04:04:19.215Z,6.75
2023-05-14T04:06:45.909Z,6.60
2023-05-14T04:09:12.900Z,6.75
2023-05-14T04:11:39.584Z,7.53
2023-05-14T04:14:06.665Z,8.07
2023-05-14T04:16:33.316Z,7.63
2023-05-14T04:19:02.597Z,6.90
2023-05-14T04:21:29.244Z,7.43
2023-05-14T04:23:55.889Z,7.65
2023-05-14T04:26:23.008Z,7.88
2023-05-14T04:28:49.648Z,8.30
2023-05-14T04:31:16.345Z,8.63
2023-05-14T04:33:44.041Z,8.27
2023-05-14T04:36:10.679Z,7.35
2023-05-14T04:38:38.768Z,8.05
2023-05-14T04:41:06.161Z,8.60
2023-05-14T04:43:32.839Z,6.85
2023-05-14T04:45:59.543Z,8.57
2023-05-14T04:48:26.291Z,8.35
2023-05-14T04:50:53.245Z,7.43
2023-05-14T04:53:19.883Z,9.40
2023-05-14T04:55:46.473Z,7.53
2023-05-14T04:58:13.172Z,8.07
2023-05-14T05:00:42.101Z,7.55
2023-05-14T05:03:08.956Z,7.97
2023-05-14T05:05:35.735Z,8.05
2023-05-14T05:08:02.362Z,6.70
2023-05-14T05:10:29.015Z,9.07
2023-05-14T05:12:55.751Z,8.25
2023-05-14T05:15:25.217Z,7.38
2023-05-14T05:17:53.131Z,7.43
2023-05-14T05:20:19.815Z,8.65
2023-05-14T05:22:46.445Z,8.15
2023-05-14T05:25:13.164Z,9.23
2023-05-14T05:27:39.780Z,9.73
2023-05-14T05:30:07.453Z,8.07
2023-05-14T05:32:34.419Z,8.30
2023-05-14T05:35:02.810Z,8.85
2023-05-14T05:37:30.609Z,8.77
2023-05-14T05:39:57.718Z,8.07
2023-05-14T05:42:24.637Z,7.88
2023-05-14T05:44:51.251Z,8.45
2023-05-14T05:47:17.898Z,8.57
2023-05-14T05:49:45.619Z,7.95
2023-05-14T05:52:13.594Z,8.77
2023-05-14T05:54:40.185Z,7.75
2023-05-14T05:57:08.034Z,7.20
2023-05-14T05:59:35.855Z,6.82
2023-05-14T06:02:02.487Z,6.90
2023-05-14T06:04:29.284Z,6.90
2023-05-14T06:06:56.044Z,6.45
2023-05-14T06:09:22.669Z,7.28
2023-05-14T06:11:49.351Z,6.50
2023-05-14T06:14:17.409Z,6.70
2023-05-14T06:16:44.085Z,6.03
2023-05-14T06:19:12.250Z,6.05
2023-05-14T06:21:38.997Z,6.10
2023-05-14T06:24:06.105Z,6.47
2023-05-14T06:26:32.777Z,6.50
2023-05-14T06:28:59.398Z,6.00
2023-05-14T06:31:26.432Z,6.05
2023-05-14T06:33:53.309Z,5.35
2023-05-14T06:36:19.920Z,5.55
2023-05-14T06:38:46.915Z,5.10
2023-05-14T06:41:15.140Z,5.80
2023-05-14T06:43:42.893Z,5.57
2023-05-14T06:46:10.645Z,5.28
2023-05-14T06:48:37.397Z,5.28
2023-05-14T06:51:04.188Z,5.50
2023-05-14T06:53:31.620Z,5.47
2023-05-14T06:55:58.256Z,5.43
2023-05-14T06:58:24.844Z,4.93
2023-05-14T07:00:52.898Z,7.10
2023-05-14T07:03:19.532Z,5.45
2023-05-14T07:05:46.794Z,4.68
2023-05-14T07:08:13.600Z,4.85
2023-05-14T07:10:40.240Z,4.68
2023-05-14T07:13:08.119Z,5.15
2023-05-14T07:15:34.783Z,4.00
2023-05-14T07:18:01.512Z,4.53
2023-05-14T07:20:29.491Z,3.78
2023-05-14T07:22:56.326Z,4.00
2023-05-14T07:25:24.112Z,3.75
2023-05-14T07:27:50.834Z,4.30
2023-05-14T07:30:17.760Z,3.72
2023-05-14T07:32:44.652Z,3.72
2023-05-14T07:35:11.863Z,4.03
2023-05-14T07:37:39.079Z,3.83
2023-05-14T07:40:08.219Z,3.60
2023-05-14T07:42:37.288Z,3.08
2023-05-14T07:45:04.996Z,3.25
2023-05-14T07:47:31.803Z,3.65
2023-05-14T07:49:58.626Z,3.92
2023-05-14T07:52:25.488Z,3.60
2023-05-14T07:54:53.654Z,3.80
2023-05-14T07:57:20.567Z,4.10
2023-05-14T07:59:48.136Z,3.40
2023-05-14T08:02:16.290Z,3.85
2023-05-14T08:04:43.085Z,3.70
2023-05-14T08:07:11.327Z,2.90
2023-05-14T08:09:37.933Z,3.38
2023-05-14T08:12:05.007Z,3.17
2023-05-14T08:14:33.200Z,3.28
2023-05-14T08:16:59.896Z,2.97
2023-05-14T08:19:27.816Z,3.33
2023-05-14T08:21:54.646Z,3.38
2023-05-14T08:24:21.455Z,3.63
2023-05-14T08:26:49.562Z,3.65
2023-05-14T08:29:16.771Z,3.17
2023-05-14T08:31:44.992Z,3.80
2023-05-14T08:34:11.728Z,3.40
2023-05-14T08:36:39.180Z,3.40
2023-05-14T08:39:07.746Z,3.65
2023-05-14T08:41:35.634Z,3.53
2023-05-14T08:44:10.358Z,3.20
2023-05-14T08:46:38.747Z,3.97
2023-05-14T08:49:18.151Z,3.10
2023-05-14T08:51:48.419Z,3.38
2023-05-14T08:54:18.777Z,3.20
2023-05-14T08:56:51.191Z,3.50
2023-05-14T08:59:18.892Z,3.55
2023-05-14T09:01:54.393Z,3.58
2023-05-14T09:04:24.218Z,3.22
2023-05-14T09:06:55.048Z,3.20
2023-05-14T09:09:22.917Z,3.28
2023-05-14T09:11:52.581Z,3.40
2023-05-14T09:14:20.641Z,2.50
2023-05-14T09:16:51.150Z,3.10
2023-05-14T09:19:19.538Z,3.22
2023-05-14T09:21:47.768Z,3.30
2023-05-14T09:24:24.856Z,3.00
2023-05-14T09:26:53.547Z,3.05
2023-05-14T09:29:20.732Z,3.20
2023-05-14T09:31:51.903Z,3.05
2023-05-14T09:34:31.776Z,3.08
2023-05-14T09:37:04.218Z,2.95
2023-05-14T09:39:36.163Z,3.15
2023-05-14T09:42:03.113Z,3.30
2023-05-14T09:44:29.805Z,2.80
2023-05-14T09:46:56.744Z,3.15
2023-05-14T09:49:23.419Z,2.72
2023-05-14T09:51:52.103Z,2.75
2023-05-14T09:54:19.028Z,3.10
2023-05-14T09:56:47.212Z,3.10
2023-05-14T09:59:15.759Z,2.95
2023-05-14T10:01:44.201Z,3.30
2023-05-14T10:04:12.594Z,3.33
2023-05-14T10:06:42.125Z,2.97
2023-05-14T10:09:13.083Z,3.15
2023-05-14T10:11:43.135Z,2.97
2023-05-14T10:14:23.632Z,2.53
2023-05-14T10:16:51.542Z,2.97
2023-05-14T10:19:22.823Z,2.67
2023-05-14T10:21:55.896Z,3.20
2023-05-14T10:24:23.882Z,3.22
2023-05-14T10:26:50.684Z,2.90
2023-05-14T10:29:17.619Z,3.47
2023-05-14T10:31:55.035Z,3.13
2023-05-14T10:34:47.081Z,3.60
2023-05-14T10:37:25.595Z,3.03
2023-05-14T10:40:03.405Z,3.47
2023-05-14T10:42:43.285Z,3.00
2023-05-14T10:45:16.170Z,2.92
2023-05-14T10:47:46.477Z,3.15
2023-05-14T10:50:15.907Z,3.30
2023-05-14T10:52:44.272Z,3.10
2023-05-14T10:55:14.371Z,3.28
2023-05-14T10:57:43.954Z,3.20
2023-05-14T11:00:12.803Z,3.33
2023-05-14T11:02:45.931Z,2.85
2023-05-14T11:05:17.830Z,3.00
2023-05-14T11:07:48.986Z,2.97
2023-05-14T11:10:17.751Z,2.83
2023-05-14T11:12:50.411Z,2.90
2023-05-14T11:15:23.140Z,2.80
2023-05-14T11:17:52.312Z,2.55
2023-05-14T11:20:20.878Z,2.95
2023-05-14T11:22:49.342Z,2.78
2023-05-14T11:25:16.259Z,3.10
2023-05-14T11:27:45.668Z,2.78
2023-05-14T11:30:17.307Z,2.70
2023-05-14T11:32:47.450Z,3.13
2023-05-14T11:35:15.285Z,2.15
2023-05-14T11:37:42.325Z,2.45
2023-05-14T11:40:16.273Z,2.63
2023-05-14T11:42:43.571Z,2.72
2023-05-14T11:45:14.397Z,3.10
2023-05-14T11:47:42.768Z,2.55
2023-05-14T11:50:11.436Z,2.55
2023-05-14T11:52:40.798Z,2.80
2023-05-14T11:55:12.239Z,2.75
2023-05-14T11:57:39.302Z,2.67
2023-05-14T12:00:14.524Z,3.65
2023-05-14T12:02:42.765Z,2.47
2023-05-14T12:05:14.392Z,2.70
2023-05-14T12:07:44.404Z,3.00
2023-05-14T12:10:13.679Z,2.63
2023-05-14T12:12:40.329Z,2.97
2023-05-14T12:15:15.714Z,2.70
2023-05-14T12:17:42.481Z,2.63
2023-05-14T12:20:12.625Z,2.60
2023-05-14T12:22:41.387Z,2.75
2023-05-14T12:25:13.523Z,2.72
2023-05-14T12:27:40.501Z,2.88
2023-05-14T12:32:42.008Z,2.75
2023-05-14T12:35:10.250Z,2.38
2023-05-14T12:37:39.283Z,2.45
2023-05-14T12:40:09.784Z,2.47
2023-05-14T12:42:37.828Z,2.65
2023-05-14T12:45:09.404Z,2.53
2023-05-14T12:47:37.067Z,2.63
2023-05-14T12:50:05.666Z,2.95
2023-05-14T12:52:38.565Z,2.60
2023-05-14T12:55:07.767Z,2.40
2023-05-14T12:57:35.570Z,2.38
2023-05-14T13:00:06.578Z,2.75
2023-05-14T13:02:33.603Z,2.90
2023-05-14T13:05:10.308Z,2.63
2023-05-14T13:07:37.327Z,2.60
2023-05-14T13:10:05.944Z,2.88
2023-05-14T13:12:32.920Z,2.67
2023-05-14T13:14:59.653Z,2.63
2023-05-14T13:17:27.685Z,3.15
2023-05-14T13:19:54.298Z,2.60
2023-05-14T13:22:21.058Z,2.88
2023-05-14T13:24:47.709Z,2.47
2023-05-14T13:27:14.341Z,2.58
2023-05-14T13:29:42.795Z,2.55
2023-05-14T13:32:10.708Z,2.40
2023-05-14T13:34:37.368Z,2.03
2023-05-14T13:37:04.187Z,2.63
2023-05-14T13:39:31.823Z,2.42
2023-05-14T13:41:58.518Z,2.30
2023-05-14T13:44:25.253Z,2.60
2023-05-14T13:46:53.852Z,2.58
2023-05-14T13:49:20.746Z,2.03
2023-05-14T13:51:48.783Z,2.55
2023-05-14T13:54:15.479Z,2.55
2023-05-14T13:56:42.270Z,2.20
2023-05-14T13:59:09.077Z,2.35
2023-05-14T14:01:35.759Z,2.40
2023-05-14T14:04:03.899Z,2.60
2023-05-14T14:06:32.597Z,2.55
2023-05-14T14:08:59.216Z,2.13
2023-05-14T14:11:26.306Z,2.33
2023-05-14T14:13:53.535Z,2.38
2023-05-14T14:16:20.407Z,2.40
2023-05-14T14:18:48.411Z,2.40
2023-05-14T14:21:18.052Z,2.03
2023-05-14T14:23:48.409Z,2.20
2023-05-14T14:26:15.049Z,2.22
2023-05-14T14:28:41.729Z,2.28
2023-05-14T14:31:08.494Z,1.77
2023-05-14T14:33:36.544Z,2.92
2023-05-14T14:36:03.235Z,2.10
2023-05-14T14:38:29.900Z,2.17
2023-05-14T14:40:58.437Z,1.92
2023-05-14T14:43:25.071Z,2.33
2023-05-14T14:45:51.735Z,2.03
2023-05-14T14:48:34.965Z,1.60
2023-05-14T14:51:01.627Z,1.85
2023-05-14T14:53:28.293Z,1.65
2023-05-14T14:55:55.602Z,2.03
2023-05-14T14:58:22.359Z,1.90
2023-05-14T15:00:52.767Z,1.67
2023-05-14T15:03:19.660Z,1.83
2023-05-14T15:05:47.037Z,2.00
2023-05-14T15:08:15.755Z,2.00
2023-05-14T15:10:42.456Z,2.13
2023-05-14T15:13:09.186Z,2.22
2023-05-14T15:15:36.222Z,2.10
2023-05-14T15:18:04.398Z,2.10
2023-05-14T15:20:31.221Z,2.30
2023-05-14T15:22:57.957Z,2.10
2023-05-14T15:25:25.552Z,2.55
2023-05-14T15:27:52.460Z,2.10
2023-05-14T15:30:19.121Z,2.30
2023-05-14T15:32:47.813Z,3.00
2023-05-14T15:35:15.798Z,2.40
2023-05-14T15:37:44.453Z,2.38
2023-05-14T15:40:12.330Z,2.42
2023-05-14T15:42:43.858Z,2.03
2023-05-14T15:45:12.688Z,2.50
2023-05-14T15:47:40.034Z,2.13
2023-05-14T15:50:07.623Z,2.47
2023-05-14T15:52:37.381Z,2.28
2023-05-14T15:55:06.201Z,2.42
2023-05-14T15:57:33.046Z,2.45
2023-05-14T15:59:59.678Z,2.40
2023-05-14T16:02:30.292Z,2.22
2023-05-14T16:04:57.059Z,2.35
2023-05-14T16:07:25.121Z,2.40
2023-05-14T16:09:51.830Z,2.83
2023-05-14T16:12:18.834Z,2.67
2023-05-14T16:14:46.864Z,2.40
2023-05-14T16:17:13.648Z,2.50
2023-05-14T16:19:41.562Z,2.78
2023-05-14T16:22:08.249Z,2.50
2023-05-14T16:24:34.969Z,2.17
2023-05-14T16:27:01.627Z,2.15
2023-05-14T16:29:28.278Z,2.58
2023-05-14T16:31:55.131Z,2.38
2023-05-14T16:34:21.746Z,2.47
2023-05-14T16:36:49.695Z,2.53
2023-05-14T16:39:16.636Z,2.72
2023-05-14T16:41:43.691Z,2.28
2023-05-14T16:44:12.614Z,2.53
2023-05-14T16:46:39.655Z,2.40
2023-05-14T16:49:06.781Z,2.40
2023-05-14T16:51:33.697Z,2.97
2023-05-14T16:54:00.603Z,2.65
2023-05-14T16:56:27.236Z,2.90
2023-05-14T16:58:53.831Z,2.33
2023-05-14T17:01:20.634Z,2.40
2023-05-14T17:03:47.439Z,2.85
2023-05-14T17:06:14.030Z,3.13
2023-05-14T17:08:40.769Z,3.20
2023-05-14T17:11:07.418Z,2.70
2023-05-14T17:13:34.202Z,2.70
2023-05-14T17:16:01.216Z,2.58
2023-05-14T17:18:28.441Z,3.38
2023-05-14T17:20:55.144Z,2.42
2023-05-14T17:23:23.188Z,2.47
2023-05-14T17:25:50.116Z,2.55
2023-05-14T17:28:16.776Z,2.58
2023-05-14T17:30:43.802Z,2.40
2023-05-14T17:33:11.492Z,2.13
2023-05-14T17:35:38.227Z,2.50
2023-05-14T17:38:06.221Z,2.55
2023-05-14T17:40:34.215Z,2.58
2023-05-14T17:43:01.423Z,2.60
2023-05-14T17:45:32.188Z,2.30
2023-05-14T17:48:03.344Z,2.63
2023-05-14T17:50:31.218Z,2.50
2023-05-14T17:52:57.841Z,3.08
2023-05-14T17:55:24.754Z,2.30
2023-05-14T17:57:51.627Z,2.90
2023-05-14T18:00:18.772Z,2.45
2023-05-14T18:02:45.493Z,2.28
2023-05-14T18:05:13.246Z,2.92
2023-05-14T18:07:40.099Z,2.35
2023-05-14T18:10:08.689Z,2.50
2023-05-14T18:12:35.314Z,2.25
2023-05-14T18:15:03.344Z,2.67
2023-05-14T18:17:30.216Z,2.42
2023-05-14T18:19:56.837Z,2.83
2023-05-14T18:22:24.892Z,2.70
2023-05-14T18:24:51.535Z,2.08
2023-05-14T18:27:18.155Z,2.83
2023-05-14T18:29:45.909Z,2.40
2023-05-14T18:32:12.609Z,2.20
2023-05-14T18:34:40.649Z,2.67
2023-05-14T18:37:08.822Z,2.50
2023-05-14T18:39:35.899Z,2.47
2023-05-14T18:42:03.217Z,1.98
2023-05-14T18:44:31.156Z,2.42
2023-05-14T18:46:59.465Z,2.60
2023-05-14T18:49:26.199Z,2.63
2023-05-14T18:51:54.086Z,2.88
2023-05-14T18:54:20.712Z,2.78
2023-05-14T18:56:47.755Z,2.60
2023-05-14T18:59:14.508Z,2.53
2023-05-14T19:01:41.155Z,2.75
2023-05-14T19:04:08.235Z,2.83
2023-05-14T19:06:36.207Z,2.90
2023-05-14T19:09:04.940Z,2.60
2023-05-14T19:11:32.903Z,2.80
2023-05-14T19:13:59.660Z,2.95
2023-05-14T19:16:26.933Z,3.63
2023-05-14T19:18:53.851Z,2.60
2023-05-14T19:21:20.472Z,3.00
2023-05-14T19:23:47.114Z,2.80
2023-05-14T19:26:13.734Z,2.80
2023-05-14T19:28:40.469Z,2.45
2023-05-14T19:31:07.143Z,2.90
2023-05-14T19:33:33.818Z,2.90
2023-05-14T19:36:00.715Z,3.03
2023-05-14T19:38:27.384Z,2.90
2023-05-14T19:40:56.924Z,2.75
2023-05-14T19:43:26.115Z,3.28
2023-05-14T19:45:52.841Z,2.97
2023-05-14T19:48:20.850Z,3.38
2023-05-14T19:50:49.873Z,2.53
2023-05-14T19:53:16.571Z,3.90
2023-05-14T19:55:43.391Z,3.53
2023-05-14T19:58:10.210Z,3.53
2023-05-14T20:00:37.171Z,3.55
2023-05-14T20:03:04.388Z,2.90
2023-05-14T20:05:33.309Z,4.22
2023-05-14T20:08:01.067Z,3.83
2023-05-14T20:10:28.993Z,3.35
2023-05-14T20:12:56.928Z,3.78
2023-05-14T20:15:23.524Z,3.70
2023-05-14T20:17:51.254Z,4.50
2023-05-14T20:20:17.937Z,3.95
2023-05-14T20:22:44.713Z,3.70
2023-05-14T20:25:12.776Z,4.20
2023-05-14T20:27:39.966Z,3.42
2023-05-14T20:30:09.611Z,3.92
2023-05-14T20:32:37.492Z,4.35
2023-05-14T20:35:04.433Z,3.67
2023-05-14T20:37:33.756Z,3.67
2023-05-14T20:40:07.424Z,3.85
2023-05-14T20:42:36.401Z,3.42
2023-05-14T20:45:03.823Z,4.55
2023-05-14T20:47:32.928Z,3.50
2023-05-14T20:50:01.749Z,4.10
2023-05-14T20:52:28.340Z,4.45
2023-05-14T20:54:54.966Z,3.97
2023-05-14T20:57:23.952Z,4.40
2023-05-14T20:59:51.301Z,5.07
2023-05-14T21:02:18.126Z,4.25
2023-05-14T21:04:44.890Z,4.38
2023-05-14T21:07:11.671Z,4.65
2023-05-14T21:09:38.283Z,4.65
2023-05-14T21:12:06.924Z,4.18
2023-05-14T21:14:33.511Z,4.25
2023-05-14T21:17:00.202Z,4.70
2023-05-14T21:19:26.831Z,4.90
2023-05-14T21:21:53.532Z,4.68
2023-05-14T21:24:20.204Z,4.38
2023-05-14T21:26:48.041Z,5.53
2023-05-14T21:29:14.678Z,5.10
2023-05-14T21:31:41.416Z,4.32
2023-05-14T21:34:08.120Z,4.80
2023-05-14T21:36:34.867Z,4.63
2023-05-14T21:39:01.496Z,4.72
2023-05-14T21:41:28.211Z,4.32
2023-05-14T21:43:55.361Z,4.32
2023-05-14T21:46:21.988Z,4.63
2023-05-14T21:48:48.760Z,4.57
2023-05-14T21:51:15.490Z,5.05
2023-05-14T21:53:43.406Z,4.97
2023-05-14T21:56:11.264Z,4.72
2023-05-14T21:58:37.979Z,4.57
2023-05-14T22:01:04.672Z,4.72
2023-05-14T22:03:31.548Z,4.55
2023-05-14T22:05:58.189Z,4.07
2023-05-14T22:08:24.848Z,4.25
2023-05-14T22:10:51.494Z,4.65
2023-05-14T22:13:18.168Z,4.45
2023-05-14T22:15:44.877Z,4.55
2023-05-14T22:18:14.002Z,4.60
2023-05-14T22:20:40.604Z,5.60
2023-05-14T22:23:07.254Z,4.50
2023-05-14T22:25:34.022Z,4.75
2023-05-14T22:28:00.813Z,4.45
2023-05-14T22:30:27.429Z,4.68
2023-05-14T22:32:55.419Z,5.00
2023-05-14T22:35:22.124Z,5.20
2023-05-14T22:37:48.824Z,5.13
2023-05-14T22:40:16.177Z,4.70
2023-05-14T22:42:43.718Z,4.90
2023-05-14T22:45:10.616Z,4.65
2023-05-14T22:47:39.491Z,4.55
2023-05-14T22:50:12.490Z,4.53
2023-05-14T22:52:40.290Z,4.78
2023-05-14T22:55:07.728Z,4.93
2023-05-14T22:57:34.885Z,4.50
2023-05-14T23:00:01.618Z,5.13
2023-05-14T23:02:28.339Z,4.95
2023-05-14T23:04:56.286Z,5.35
2023-05-14T23:07:24.358Z,5.35
2023-05-14T23:09:52.354Z,4.70
2023-05-14T23:12:19.046Z,5.00
2023-05-14T23:14:47.256Z,4.85
2023-05-14T23:17:13.924Z,4.85
2023-05-14T23:19:42.682Z,4.70
2023-05-14T23:22:09.316Z,4.45
2023-05-14T23:24:37.209Z,5.22
2023-05-14T23:27:03.997Z,4.80
2023-05-14T23:29:30.658Z,5.45
2023-05-14T23:31:57.347Z,4.80
2023-05-14T23:34:24.099Z,4.93
2023-05-14T23:36:51.062Z,4.70
2023-05-14T23:39:17.728Z,5.50
2023-05-14T23:41:44.464Z,5.90
2023-05-14T23:44:11.516Z,6.07
2023-05-14T23:46:38.217Z,5.18
2023-05-14T23:49:06.318Z,5.60
2023-05-14T23:51:32.968Z,5.72
2023-05-14T23:54:01.158Z,5.20
2023-05-14T23:56:29.201Z,4.97
2023-05-14T23:58:56.774Z,5.68
